| time (UTC) | temp C | wind direction | speed KPH | gust KPH | rain 1hr cm | rain 24hr cm | rain mn cm | humidity % | barometer mb |
| 20260503050017 | 14 | 225 | 1.6 | 6.4 | 0.00 | 0.00 | 0.00 | 50 | 1010.3 |
| 20260503044532 | 14 | 224 | 3.2 | 6.4 | 0.00 | 0.00 | 0.00 | 50 | 1010.4 |
| 20260503043014 | 13 | 201 | 1.6 | 4.8 | 0.00 | 0.00 | 0.00 | 49 | 1010.5 |
| 20260503041512 | 13 | 202 | 1.6 | 3.2 | 0.00 | 0.00 | 0.00 | 49 | 1010.8 |
| 20260503040010 | 13 | 203 | 1.6 | 4.8 | 0.00 | 0.00 | 0.00 | 48 | 1010.9 |
| 20260503034508 | 13 | 207 | 3.2 | 4.8 | 0.00 | 0.00 | 0.00 | 48 | 1011.3 |
| 20260503033005 | 13 | 209 | 1.6 | 3.2 | 0.00 | 0.00 | 0.00 | 49 | 1011.5 |
| 20260503031503 | 13 | 209 | 0.0 | 4.8 | 0.00 | 0.00 | 0.00 | 49 | 1011.8 |
| 20260503030004 | 13 | 211 | 1.6 | 4.8 | 0.00 | 0.00 | 0.00 | 49 | 1011.9 |
| 20260503024502 | 13 | 215 | 1.6 | 3.2 | 0.00 | 0.00 | 0.00 | 48 | 1012.0 |
| 20260503023001 | 13 | 215 | 1.6 | 4.8 | 0.00 | 0.00 | 0.00 | 47 | 1012.0 |
| 20260503021605 | 13 | 219 | 0.0 | 0.0 | 0.00 | 0.00 | 0.00 | 47 | 1012.0 |
| 20260503020105 | 14 | 219 | 0.0 | 0.0 | 0.00 | 0.00 | 0.00 | 45 | 1012.0 |
| 20260503014600 | 14 | 219 | 0.0 | 4.8 | 0.00 | 0.00 | 0.00 | 45 | 1012.0 |
| 20260503013103 | 14 | 221 | 1.6 | 3.2 | 0.00 | 0.00 | 0.00 | 44 | 1012.1 |
| 20260503011607 | 15 | 221 | 0.0 | 1.6 | 0.00 | 0.00 | 0.00 | 43 | 1012.2 |
| 20260503010100 | 15 | 222 | 1.6 | 6.4 | 0.00 | 0.00 | 0.00 | 42 | 1012.3 |
| 20260503004556 | 15 | 225 | 0.0 | 3.2 | 0.00 | 0.00 | 0.00 | 41 | 1012.3 |
| 20260503003054 | 15 | 227 | 1.6 | 6.4 | 0.00 | 0.00 | 0.00 | 41 | 1012.5 |
| 20260503001554 | 15 | 229 | 0.0 | 4.8 | 0.00 | 0.00 | 0.00 | 41 | 1012.7 |
| 20260503000107 | 15 | 229 | 1.6 | 11.3 | 0.00 | 0.00 | 0.00 | 40 | 1012.8 |
| 20260502234550 | 16 | 234 | 6.4 | 11.3 | 0.00 | 0.00 | 0.00 | 39 | 1012.9 |
| 20260502233048 | 15 | 230 | 4.8 | 11.3 | 0.00 | 0.00 | 0.00 | 40 | 1013.2 |
| 20260502231612 | 16 | 233 | 6.4 | 11.3 | 0.00 | 0.00 | 0.00 | 39 | 1013.4 |
| 20260502230046 | 16 | 257 | 9.7 | 19.3 | 0.00 | 0.00 | 0.00 | 39 | 1013.6 |
| 20260502224555 | 16 | 253 | 9.7 | 20.9 | 0.00 | 0.00 | 0.00 | 39 | 1013.7 |
| 20260502223044 | 16 | 239 | 6.4 | 17.7 | 0.00 | 0.00 | 0.00 | 39 | 1013.8 |
| 20260502221544 | 16 | 232 | 4.8 | 19.3 | 0.00 | 0.00 | 0.00 | 38 | 1013.9 |
| 20260502220047 | 16 | 235 | 8.0 | 20.9 | 0.00 | 0.00 | 0.00 | 38 | 1014.0 |
| 20260502214541 | 16 | 239 | 9.7 | 19.3 | 0.00 | 0.00 | 0.00 | 38 | 1014.1 |
| 20260502213037 | 16 | 263 | 4.8 | 25.7 | 0.00 | 0.00 | 0.00 | 38 | 1014.5 |
| 20260502211536 | 16 | 237 | 11.3 | 25.7 | 0.00 | 0.00 | 0.00 | 37 | 1014.5 |
| 20260502210033 | 16 | 229 | 8.0 | 17.7 | 0.00 | 0.00 | 0.00 | 36 | 1014.8 |
| 20260502204532 | 15 | 232 | 4.8 | 12.9 | 0.00 | 0.00 | 0.00 | 36 | 1014.9 |
| 20260502203031 | 16 | 226 | 8.0 | 14.5 | 0.00 | 0.00 | 0.00 | 36 | 1015.1 |
| 20260502201530 | 15 | 240 | 8.0 | 22.5 | 0.00 | 0.00 | 0.00 | 35 | 1015.4 |
| 20260502200026 | 15 | 296 | 11.3 | 22.5 | 0.00 | 0.00 | 0.00 | 36 | 1015.6 |
| 20260502194523 | 15 | 344 | 4.8 | 20.9 | 0.00 | 0.00 | 0.00 | 36 | 1015.9 |
| 20260502193022 | 15 | 244 | 11.3 | 24.1 | 0.00 | 0.00 | 0.00 | 35 | 1016.1 |
| 20260502191519 | 15 | 245 | 6.4 | 20.9 | 0.00 | 0.00 | 0.00 | 37 | 1016.3 |
| 20260502190022 | 14 | 228 | 6.4 | 16.1 | 0.00 | 0.00 | 0.00 | 36 | 1016.5 |
| 20260502184514 | 14 | 245 | 11.3 | 22.5 | 0.00 | 0.00 | 0.00 | 35 | 1016.8 |
| 20260502183012 | 14 | 238 | 4.8 | 14.5 | 0.00 | 0.00 | 0.00 | 37 | 1017.0 |
| 20260502181510 | 13 | 249 | 8.0 | 17.7 | 0.00 | 0.00 | 0.00 | 36 | 1017.2 |
| 20260502163056 | 12 | 269 | 11.3 | 19.3 | 0.00 | 0.00 | 0.00 | 39 | 1018.4 |
| 20260502161616 | 12 | 278 | 8.0 | 25.7 | 0.00 | 0.00 | 0.00 | 41 | 1018.6 |
| 20260502160108 | 12 | 271 | 9.7 | 17.7 | 0.00 | 0.00 | 0.00 | 45 | 1018.6 |
| 20260502151537 | 10 | 250 | 3.2 | 11.3 | 0.00 | 0.00 | 0.00 | 51 | 1018.9 |
| 20260502130125 | 4 | 238 | 1.6 | 6.4 | 0.00 | 0.00 | 0.00 | 70 | 1019.6 |
| 20260502123125 | 1 | 10 | 0.0 | 0.0 | 0.00 | 0.00 | 0.00 | 85 | 1019.7 |
| 20260502121554 | 0 | 10 | 0.0 | 0.0 | 0.00 | 0.00 | 0.00 | 88 | 1019.7 |
| 20260502120112 | 0 | 10 | 0.0 | 0.0 | 0.00 | 0.00 | 0.00 | 87 | 1019.7 |
| 20260502114555 | 0 | 10 | 0.0 | 0.0 | 0.00 | 0.00 | 0.00 | 87 | 1019.6 |
| 20260502113051 | 0 | 10 | 0.0 | 0.0 | 0.00 | 0.00 | 0.00 | 86 | 1019.5 |
| 20260502111549 | 0 | 10 | 0.0 | 0.0 | 0.00 | 0.00 | 0.00 | 86 | 1019.5 |
| 20260502110049 | 0 | 10 | 0.0 | 0.0 | 0.00 | 0.00 | 0.00 | 85 | 1019.5 |
| 20260502104545 | 0 | 10 | 0.0 | 1.6 | 0.00 | 0.00 | 0.00 | 84 | 1019.5 |
| 20260502103044 | -1 | 10 | 0.0 | 0.0 | 0.00 | 0.00 | 0.00 | 82 | 1019.6 |
| 20260502101553 | -1 | 10 | 0.0 | 0.0 | 0.00 | 0.00 | 0.00 | 81 | 1019.5 |
| 20260502071530 | 0 | 9 | 0.0 | 0.0 | 0.00 | 0.00 | 0.00 | 79 | 1020.1 |
| 20260502070026 | 1 | 9 | 0.0 | 0.0 | 0.00 | 0.00 | 0.00 | 77 | 1020.3 |
| 20260502064525 | 1 | 9 | 0.0 | 0.0 | 0.00 | 0.00 | 0.00 | 77 | 1020.3 |
| 20260502063021 | 1 | 9 | 0.0 | 0.0 | 0.00 | 0.00 | 0.00 | 75 | 1020.4 |
| 20260502061517 | 1 | 9 | 0.0 | 0.0 | 0.00 | 0.00 | 0.00 | 74 | 1020.3 |
| 20260502060016 | 2 | 9 | 0.0 | 0.0 | 0.00 | 0.00 | 0.00 | 74 | 1020.3 |
| 20260502054521 | 2 | 9 | 0.0 | 0.0 | 0.00 | 0.00 | 0.00 | 74 | 1020.3 |
| 20260502053012 | 2 | 9 | 0.0 | 0.0 | 0.00 | 0.00 | 0.00 | 73 | 1020.3 |
| 20260502051515 | 2 | 9 | 0.0 | 0.0 | 0.00 | 0.00 | 0.00 | 71 | 1020.2 |